createdAt,value
2019-05-05T00:00:44.525Z,98575.90
2019-05-05T00:03:17.851Z,98573.78
2019-05-05T00:05:49.027Z,98569.17
2019-05-05T00:08:18.349Z,98573.25
2019-05-05T00:10:57.004Z,98575.55
2019-05-05T00:13:36.731Z,98577.83
2019-05-05T00:16:16.607Z,98577.33
2019-05-05T00:18:45.879Z,98581.51
2019-05-05T00:21:15.272Z,98585.73
2019-05-05T00:23:45.169Z,98583.84
2019-05-05T00:26:15.039Z,98586.05
2019-05-05T00:28:44.889Z,98597.36
2019-05-05T00:31:15.079Z,98594.89
2019-05-05T00:33:44.964Z,98598.47
2019-05-05T00:36:14.661Z,98595.31
2019-05-05T00:38:44.557Z,98589.83
2019-05-05T00:41:14.839Z,98582.89
2019-05-05T00:43:45.123Z,98594.89
2019-05-05T00:46:16.602Z,98588.72
2019-05-05T00:48:47.358Z,98593.40
2019-05-05T00:51:16.644Z,98595.12
2019-05-05T00:53:46.026Z,98600.94
2019-05-05T00:56:15.416Z,98595.38
2019-05-05T00:58:46.397Z,98602.56
2019-05-05T01:01:20.077Z,98590.34
2019-05-05T01:03:49.399Z,98597.84
2019-05-05T01:06:20.307Z,98592.47
2019-05-05T01:08:49.652Z,98594.79
2019-05-05T01:11:19.309Z,98599.43
2019-05-05T01:13:48.629Z,98598.81
2019-05-05T01:16:18.012Z,98594.40
2019-05-05T01:18:47.372Z,98601.13
2019-05-05T01:21:16.628Z,98603.98
2019-05-05T01:23:45.957Z,98613.24
2019-05-05T01:26:15.403Z,98619.25
2019-05-05T01:28:44.848Z,98624.45
2019-05-05T01:31:15.789Z,98618.03
2019-05-05T01:33:54.191Z,98619.37
2019-05-05T01:36:24.278Z,98617.59
2019-05-05T01:38:57.925Z,98617.39
2019-05-05T01:41:29.261Z,98622.02
2019-05-05T01:43:58.670Z,98625.19
2019-05-05T01:46:28.093Z,98634.75
2019-05-05T01:48:57.528Z,98643.59
2019-05-05T01:51:26.913Z,98650.56
2019-05-05T01:53:56.261Z,98651.92
2019-05-05T01:56:25.615Z,98652.55
2019-05-05T01:58:55.652Z,98650.52
2019-05-05T02:01:25.012Z,98659.80
2019-05-05T02:03:54.999Z,98668.19
2019-05-05T02:06:24.880Z,98661.42
2019-05-05T02:08:54.986Z,98665.16
2019-05-05T02:11:24.778Z,98669.55
2019-05-05T02:13:54.678Z,98663.58
2019-05-05T02:16:25.309Z,98670.28
2019-05-05T02:18:54.942Z,98670.16
2019-05-05T02:21:24.756Z,98677.89
2019-05-05T02:23:54.904Z,98680.03
2019-05-05T02:26:24.663Z,98691.35
2019-05-05T02:28:55.691Z,98684.55
2019-05-05T02:31:36.171Z,98698.86
2019-05-05T02:34:05.663Z,98705.22
2019-05-05T02:36:35.709Z,98698.48
2019-05-05T02:39:07.557Z,98708.37
2019-05-05T02:41:37.957Z,98718.17
2019-05-05T02:44:07.327Z,98715.18
2019-05-05T02:46:38.258Z,98718.61
2019-05-05T02:49:07.569Z,98719.03
2019-05-05T02:51:36.810Z,98725.70
2019-05-05T02:54:06.251Z,98717.45
2019-05-05T02:56:49.592Z,98719.30
2019-05-05T02:59:20.809Z,98717.32
2019-05-05T03:01:57.712Z,98714.52
2019-05-05T03:04:27.161Z,98721.30
2019-05-05T03:06:56.477Z,98729.19
2019-05-05T03:09:25.732Z,98731.91
2019-05-05T03:11:55.397Z,98734.16
2019-05-05T03:14:24.791Z,98734.33
2019-05-05T03:16:54.307Z,98733.84
2019-05-05T03:19:24.435Z,98739.38
2019-05-05T03:21:54.567Z,98741.38
2019-05-05T03:24:23.940Z,98735.95
2019-05-05T03:26:53.771Z,98737.16
2019-05-05T03:29:24.334Z,98730.59
2019-05-05T03:31:56.344Z,98736.19
2019-05-05T03:34:26.659Z,98743.77
2019-05-05T03:36:55.915Z,98757.48
2019-05-05T03:39:31.092Z,98766.56
2019-05-05T03:42:03.610Z,98761.46
2019-05-05T03:44:34.663Z,98754.35
2019-05-05T03:47:04.065Z,98755.77
2019-05-05T03:49:33.850Z,98774.42
2019-05-05T03:52:04.830Z,98789.98
2019-05-05T03:54:34.398Z,98797.55
2019-05-05T03:57:10.132Z,98807.52
2019-05-05T03:59:41.118Z,98812.20
2019-05-05T04:02:15.182Z,98823.59
2019-05-05T04:04:46.078Z,98828.45
2019-05-05T04:07:15.462Z,98831.31
2019-05-05T04:09:46.472Z,98833.64
2019-05-05T04:12:15.785Z,98852.05
2019-05-05T04:14:45.473Z,98842.53
2019-05-05T04:17:16.778Z,98850.55
2019-05-05T04:19:54.256Z,98844.27
2019-05-05T04:22:23.873Z,98850.05
2019-05-05T04:24:54.129Z,98846.33
2019-05-05T04:27:23.975Z,98849.15
2019-05-05T04:29:54.509Z,98856.69
2019-05-05T04:32:24.504Z,98864.47
2019-05-05T04:34:54.412Z,98864.53
2019-05-05T04:37:24.072Z,98860.31
2019-05-05T04:39:53.801Z,98871.34
2019-05-05T04:42:24.509Z,98865.17
2019-05-05T04:44:53.991Z,98879.30
2019-05-05T04:47:25.125Z,98893.86
2019-05-05T04:50:14.512Z,98883.40
2019-05-05T04:52:43.599Z,98895.47
2019-05-05T04:55:13.832Z,98904.41
2019-05-05T04:57:43.793Z,98910.50
2019-05-05T05:00:13.773Z,98913.50
2019-05-05T05:02:54.551Z,98904.69
2019-05-05T05:05:27.877Z,98920.27
2019-05-05T05:07:58.092Z,98923.66
2019-05-05T05:10:27.632Z,98922.16
2019-05-05T05:12:56.802Z,98927.81
2019-05-05T05:15:25.964Z,98936.52
2019-05-05T05:18:04.078Z,98935.69
2019-05-05T05:20:34.066Z,98934.00
2019-05-05T05:23:03.756Z,98938.08
2019-05-05T05:25:34.711Z,98939.55
2019-05-05T05:28:04.393Z,98947.02
2019-05-05T05:30:34.680Z,98953.89
2019-05-05T05:33:04.942Z,98954.61
2019-05-05T05:35:34.119Z,98947.02
2019-05-05T05:38:04.698Z,98955.25
2019-05-05T05:40:41.482Z,98960.19
2019-05-05T05:43:13.924Z,98965.41
2019-05-05T05:45:56.691Z,98970.89
2019-05-05T05:48:36.124Z,98973.03
2019-05-05T05:51:14.648Z,98970.72
2019-05-05T05:53:44.323Z,98971.81
2019-05-05T05:56:13.613Z,98978.07
2019-05-05T05:58:44.221Z,98983.35
2019-05-05T06:01:14.689Z,98987.52
2019-05-05T06:03:44.418Z,98986.69
2019-05-05T06:06:15.026Z,98990.20
2019-05-05T06:08:44.248Z,98982.44
2019-05-05T06:11:13.745Z,98993.27
2019-05-05T06:13:44.444Z,99003.72
2019-05-05T06:16:14.557Z,98995.75
2019-05-05T06:18:43.906Z,98999.17
2019-05-05T06:21:13.748Z,98997.61
2019-05-05T06:23:43.843Z,99004.87
2019-05-05T06:26:15.198Z,99001.95
2019-05-05T06:28:44.737Z,99007.48
2019-05-05T06:31:14.748Z,99018.66
2019-05-05T06:33:43.997Z,99026.28
2019-05-05T06:36:14.187Z,99030.09
2019-05-05T06:38:43.817Z,99036.62
2019-05-05T06:41:14.841Z,99046.91
2019-05-05T06:43:45.650Z,99030.55
2019-05-05T06:46:16.503Z,99042.55
2019-05-05T06:48:45.687Z,99041.29
2019-05-05T06:51:14.850Z,99047.16
2019-05-05T06:53:44.329Z,99037.88
2019-05-05T06:56:14.578Z,99043.92
2019-05-05T06:58:44.792Z,99053.86
2019-05-05T07:01:14.469Z,99065.45
2019-05-05T07:03:43.931Z,99071.20
2019-05-05T07:06:14.612Z,99070.72
2019-05-05T07:08:44.116Z,99077.34
2019-05-05T07:11:14.507Z,99082.67
2019-05-05T07:13:44.415Z,99082.53
2019-05-05T07:16:15.012Z,99086.27
2019-05-05T07:18:44.775Z,99093.52
2019-05-05T07:21:14.373Z,99095.27
2019-05-05T07:23:44.576Z,99083.55
2019-05-05T07:26:14.514Z,99089.98
2019-05-05T07:28:44.950Z,99097.36
2019-05-05T07:31:14.475Z,99107.53
2019-05-05T07:33:43.954Z,99116.53
2019-05-05T07:36:17.260Z,99119.02
2019-05-05T07:38:48.315Z,99118.66
2019-05-05T07:41:17.517Z,99114.77
2019-05-05T07:43:46.783Z,99111.91
2019-05-05T07:46:16.118Z,99119.23
2019-05-05T07:48:45.299Z,99110.83
2019-05-05T07:51:14.559Z,99114.56
2019-05-05T07:53:44.419Z,99110.48
2019-05-05T07:56:14.517Z,99104.88
2019-05-05T07:58:44.068Z,99110.61
2019-05-05T08:01:14.155Z,99115.92
2019-05-05T08:03:44.532Z,99109.22
2019-05-05T08:06:14.629Z,99122.57
2019-05-05T08:08:44.455Z,99127.38
2019-05-05T08:11:14.796Z,99130.56
2019-05-05T08:13:45.812Z,99127.72
2019-05-05T08:16:16.745Z,99131.19
2019-05-05T08:19:03.969Z,99136.94
2019-05-05T08:21:34.649Z,99149.13
2019-05-05T08:24:08.740Z,99136.60
2019-05-05T08:26:48.612Z,99138.00
2019-05-05T08:29:37.518Z,99131.25
2019-05-05T08:32:08.620Z,99140.91
2019-05-05T08:34:38.007Z,99144.59
2019-05-05T08:37:07.289Z,99151.41
2019-05-05T08:39:36.542Z,99137.58
2019-05-05T08:42:05.937Z,99142.91
2019-05-05T08:44:35.315Z,99144.03
2019-05-05T08:47:04.778Z,99121.77
2019-05-05T08:49:34.772Z,99141.05
2019-05-05T08:52:04.300Z,99136.64
2019-05-05T08:54:34.395Z,99126.16
2019-05-05T08:57:04.340Z,99127.45
2019-05-05T08:59:33.877Z,99121.69
2019-05-05T09:02:04.511Z,99128.56
2019-05-05T09:04:34.110Z,99122.81
2019-05-05T09:07:05.011Z,99125.47
2019-05-05T09:09:34.682Z,99124.37
2019-05-05T09:12:04.530Z,99130.66
2019-05-05T09:14:34.662Z,99130.41
2019-05-05T09:17:04.565Z,99127.73
2019-05-05T09:19:34.523Z,99135.98
2019-05-05T09:22:05.661Z,99131.91
2019-05-05T09:24:53.648Z,99132.31
2019-05-05T09:27:28.416Z,99153.56
2019-05-05T09:29:57.941Z,99144.26
2019-05-05T09:32:27.636Z,99148.92
2019-05-05T09:34:56.904Z,99159.83
2019-05-05T09:37:26.455Z,99152.80
2019-05-05T09:39:56.279Z,99159.42
2019-05-05T09:42:25.623Z,99155.70
2019-05-05T09:44:55.043Z,99154.78
2019-05-05T09:47:24.382Z,99162.34
2019-05-05T09:49:54.967Z,99167.73
2019-05-05T09:52:24.561Z,99176.69
2019-05-05T09:54:54.393Z,99181.22
2019-05-05T09:57:23.905Z,99185.16
2019-05-05T09:59:57.442Z,99182.69
2019-05-05T10:02:26.903Z,99193.00
2019-05-05T10:04:56.230Z,99193.92
2019-05-05T10:07:25.574Z,99191.53
2019-05-05T10:09:55.805Z,99185.87
2019-05-05T10:12:25.226Z,99195.71
2019-05-05T10:14:54.700Z,99196.25
2019-05-05T10:17:24.448Z,99200.40
2019-05-05T10:19:54.701Z,99202.88
2019-05-05T10:22:24.121Z,99199.48
2019-05-05T10:24:57.567Z,99199.64
2019-05-05T10:27:26.840Z,99201.80
2019-05-05T10:29:56.143Z,99202.04
2019-05-05T10:32:38.780Z,99193.44
2019-05-05T10:35:07.566Z,99208.16
2019-05-05T10:37:41.215Z,99210.02
2019-05-05T10:40:12.154Z,99214.44
2019-05-05T10:42:50.320Z,99211.31
2019-05-05T10:45:21.144Z,99221.66
2019-05-05T10:47:51.401Z,99209.45
2019-05-05T10:50:20.714Z,99221.20
2019-05-05T10:52:50.049Z,99221.33
2019-05-05T10:55:20.945Z,99233.81
2019-05-05T10:57:50.314Z,99243.99
2019-05-05T11:00:44.350Z,99244.08
2019-05-05T11:03:15.013Z,99229.60
2019-05-05T11:05:45.093Z,99235.44
2019-05-05T11:08:15.125Z,99224.92
2019-05-05T11:10:45.157Z,99243.47
2019-05-05T11:13:14.579Z,99236.68
2019-05-05T11:15:44.497Z,99254.87
2019-05-05T11:18:14.936Z,99258.09
2019-05-05T11:20:45.113Z,99260.39
2019-05-05T11:23:15.220Z,99258.91
2019-05-05T11:25:44.888Z,99268.11
2019-05-05T11:28:14.290Z,99279.04
2019-05-05T11:30:45.820Z,99277.22
2019-05-05T11:33:16.789Z,99269.78
2019-05-05T11:35:53.977Z,99275.16
2019-05-05T11:38:24.723Z,99273.56
2019-05-05T11:40:54.769Z,99283.36
2019-05-05T11:43:24.800Z,99293.98
2019-05-05T11:45:54.616Z,99298.94
2019-05-05T11:48:24.179Z,99286.00
2019-05-05T11:50:54.171Z,99284.70
2019-05-05T11:53:25.098Z,99280.74
2019-05-05T11:55:55.206Z,99275.47
2019-05-05T11:58:25.006Z,99275.00
2019-05-05T12:00:54.774Z,99265.53
2019-05-05T12:03:24.179Z,99273.27
2019-05-05T12:05:53.479Z,99286.33
2019-05-05T12:08:23.875Z,99285.72
2019-05-05T12:11:04.603Z,99283.19
2019-05-05T12:13:34.030Z,99291.50
2019-05-05T12:16:05.179Z,99296.88
2019-05-05T12:18:34.616Z,99291.12
2019-05-05T12:21:05.156Z,99288.44
2019-05-05T12:23:34.641Z,99287.89
2019-05-05T12:26:13.651Z,99289.95
2019-05-05T12:28:47.309Z,99282.22
2019-05-05T12:31:24.734Z,99278.77
2019-05-05T12:33:54.952Z,99281.06
2019-05-05T12:36:24.460Z,99281.75
2019-05-05T12:38:54.562Z,99275.22
2019-05-05T12:41:24.226Z,99282.30
2019-05-05T12:43:54.863Z,99276.42
2019-05-05T12:46:33.682Z,99288.50
2019-05-05T12:49:04.909Z,99286.19
2019-05-05T12:51:34.414Z,99269.07
2019-05-05T12:54:04.628Z,99279.58
2019-05-05T12:56:34.250Z,99284.81
2019-05-05T12:59:05.342Z,99282.01
2019-05-05T13:01:44.181Z,99275.92
2019-05-05T13:04:14.112Z,99275.32
2019-05-05T13:06:45.060Z,99282.26
2019-05-05T13:09:16.134Z,99283.03
2019-05-05T13:11:45.499Z,99282.28
2019-05-05T13:14:14.834Z,99283.65
2019-05-05T13:16:52.496Z,99287.19
2019-05-05T13:19:24.229Z,99289.83
2019-05-05T13:22:11.442Z,99276.73
2019-05-05T13:24:53.992Z,99282.64
2019-05-05T13:27:25.035Z,99284.66
2019-05-05T13:29:54.542Z,99279.88
2019-05-05T13:32:24.751Z,99272.24
2019-05-05T13:34:54.612Z,99286.73
2019-05-05T13:37:24.524Z,99283.33
2019-05-05T13:39:54.035Z,99282.23
2019-05-05T13:42:24.335Z,99279.41
2019-05-05T13:44:58.334Z,99279.72
2019-05-05T13:47:27.660Z,99277.72
2019-05-05T13:49:58.604Z,99283.59
2019-05-05T13:52:27.782Z,99280.94
2019-05-05T13:54:57.112Z,99290.07
2019-05-05T13:57:26.601Z,99303.28
2019-05-05T13:59:55.934Z,99294.77
2019-05-05T14:02:25.212Z,99290.86
2019-05-05T14:04:54.526Z,99287.77
2019-05-05T14:07:24.134Z,99299.09
2019-05-05T14:09:54.944Z,99293.98
2019-05-05T14:12:24.212Z,99290.09
2019-05-05T14:14:54.588Z,99301.66
2019-05-05T14:17:23.880Z,99308.31
2019-05-05T14:20:02.507Z,99296.98
2019-05-05T14:22:24.365Z,99301.72
2019-05-05T14:25:01.229Z,99306.94
2019-05-05T14:27:30.466Z,99302.11
2019-05-05T14:30:10.262Z,99305.30
2019-05-05T14:32:41.081Z,99301.45
2019-05-05T14:35:20.777Z,99303.83
2019-05-05T14:37:56.249Z,99306.55
2019-05-05T14:40:25.698Z,99295.37
2019-05-05T14:42:54.851Z,99299.09
2019-05-05T14:45:24.114Z,99290.80
2019-05-05T14:47:53.604Z,99295.33
2019-05-05T14:50:24.242Z,99282.01
2019-05-05T14:52:53.658Z,99291.18
2019-05-05T14:55:22.874Z,99293.37
2019-05-05T14:57:53.466Z,99291.84
2019-05-05T15:00:24.415Z,99290.39
2019-05-05T15:02:54.445Z,99301.44
2019-05-05T15:05:37.711Z,99287.80
2019-05-05T15:08:08.607Z,99289.93
2019-05-05T15:10:55.660Z,99290.47
2019-05-05T15:13:25.183Z,99293.58
2019-05-05T15:15:54.432Z,99284.17
2019-05-05T15:18:24.256Z,99296.34
2019-05-05T15:20:54.644Z,99296.92
2019-05-05T15:23:24.179Z,99293.22
2019-05-05T15:25:54.013Z,99302.70
2019-05-05T15:28:24.560Z,99304.37
2019-05-05T15:30:54.443Z,99302.67
2019-05-05T15:33:24.402Z,99300.58
2019-05-05T15:35:54.277Z,99299.83
2019-05-05T15:38:24.433Z,99295.47
2019-05-05T15:40:54.700Z,99297.84
2019-05-05T15:43:24.551Z,99300.75
2019-05-05T15:45:54.136Z,99301.20
2019-05-05T15:48:23.486Z,99297.50
2019-05-05T15:50:54.654Z,99302.25
2019-05-05T15:53:24.023Z,99303.06
2019-05-05T15:55:54.030Z,99301.03
2019-05-05T15:58:23.669Z,99297.75
2019-05-05T16:00:53.823Z,99299.21
2019-05-05T16:03:24.086Z,99296.41
2019-05-05T16:05:54.336Z,99306.35
2019-05-05T16:08:23.735Z,99302.19
2019-05-05T16:10:54.647Z,99300.42
2019-05-05T16:13:23.931Z,99305.42
2019-05-05T16:16:14.560Z,99297.08
2019-05-05T16:18:48.666Z,99296.02
2019-05-05T16:21:23.629Z,99299.28
2019-05-05T16:24:07.743Z,99298.41
2019-05-05T16:26:37.277Z,99296.34
2019-05-05T16:29:06.513Z,99299.61
2019-05-05T16:31:35.932Z,99303.05
2019-05-05T16:34:05.144Z,99298.22
2019-05-05T16:36:34.404Z,99296.80
2019-05-05T16:39:03.826Z,99294.03
2019-05-05T16:41:34.065Z,99290.91
2019-05-05T16:44:03.937Z,99294.76
2019-05-05T16:46:34.136Z,99292.25
2019-05-05T16:49:03.646Z,99285.35
2019-05-05T16:51:40.046Z,99283.25
2019-05-05T16:54:16.759Z,99289.69
2019-05-05T16:56:46.199Z,99283.77
2019-05-05T16:59:16.554Z,99292.82
2019-05-05T17:01:46.041Z,99296.70
2019-05-05T17:04:15.244Z,99288.49
2019-05-05T17:06:45.843Z,99298.33
2019-05-05T17:09:15.137Z,99299.55
2019-05-05T17:11:45.959Z,99300.56
2019-05-05T17:14:23.438Z,99305.16
2019-05-05T17:16:54.560Z,99307.93
2019-05-05T17:19:25.343Z,99304.83
2019-05-05T17:22:08.206Z,99296.52
2019-05-05T17:24:38.934Z,99298.04
2019-05-05T17:27:08.148Z,99300.41
2019-05-05T17:29:37.352Z,99298.63
2019-05-05T17:32:06.646Z,99308.45
2019-05-05T17:34:35.834Z,99307.87
2019-05-05T17:37:05.018Z,99311.17
2019-05-05T17:39:35.869Z,99314.28
2019-05-05T17:42:15.728Z,99309.22
2019-05-05T17:45:03.720Z,99307.69
2019-05-05T17:47:40.634Z,99312.56
2019-05-05T17:50:17.430Z,99309.53
2019-05-05T17:52:48.245Z,99312.90
2019-05-05T17:55:28.413Z,99305.39
2019-05-05T17:58:02.620Z,99311.46
2019-05-05T18:00:34.313Z,99314.69
2019-05-05T18:03:04.895Z,99311.17
2019-05-05T18:05:54.510Z,99318.95
2019-05-05T18:08:37.752Z,99309.88
2019-05-05T18:11:13.916Z,99306.41
2019-05-05T18:13:44.879Z,99305.42
2019-05-05T18:16:15.953Z,99307.72
2019-05-05T18:18:45.129Z,99315.91
2019-05-05T18:21:14.529Z,99313.62
2019-05-05T18:23:44.041Z,99313.05
2019-05-05T18:26:13.765Z,99312.56
2019-05-05T18:28:44.768Z,99312.77
2019-05-05T18:31:14.734Z,99312.91
2019-05-05T18:33:43.919Z,99324.80
2019-05-05T18:36:14.196Z,99327.46
2019-05-05T18:38:44.431Z,99329.23
2019-05-05T18:41:20.366Z,99327.84
2019-05-05T18:43:50.655Z,99325.55
2019-05-05T18:46:20.083Z,99325.48
2019-05-05T18:48:49.489Z,99330.06
2019-05-05T18:51:18.662Z,99329.95
2019-05-05T18:53:47.910Z,99329.23
2019-05-05T18:56:17.181Z,99336.73
2019-05-05T18:58:46.496Z,99338.84
2019-05-05T19:01:20.290Z,99333.84
2019-05-05T19:04:04.193Z,99337.45
2019-05-05T19:06:51.911Z,99342.98
2019-05-05T19:09:24.738Z,99347.98
2019-05-05T19:11:54.547Z,99350.20
2019-05-05T19:14:24.318Z,99346.86
2019-05-05T19:16:55.679Z,99350.14
2019-05-05T19:19:26.924Z,99352.97
2019-05-05T19:22:06.401Z,99354.24
2019-05-05T19:24:35.677Z,99360.61
2019-05-05T19:27:04.927Z,99363.31
2019-05-05T19:29:34.393Z,99359.53
2019-05-05T19:32:04.183Z,99368.09
2019-05-05T19:34:35.292Z,99369.36
2019-05-05T19:37:04.342Z,99371.06
2019-05-05T19:39:34.411Z,99373.46
2019-05-05T19:42:04.867Z,99364.59
2019-05-05T19:44:34.244Z,99364.62
2019-05-05T19:47:07.542Z,99363.98
2019-05-05T19:49:39.158Z,99353.66
2019-05-05T19:52:07.724Z,99357.55
2019-05-05T19:54:37.001Z,99370.72
2019-05-05T19:57:06.168Z,99370.28
2019-05-05T19:59:35.868Z,99366.88
2019-05-05T20:02:06.407Z,99369.28
2019-05-05T20:04:35.583Z,99366.84
2019-05-05T20:07:04.862Z,99358.69
2019-05-05T20:09:34.201Z,99359.26
2019-05-05T20:12:04.008Z,99360.83
2019-05-05T20:14:34.206Z,99361.67
2019-05-05T20:17:05.250Z,99361.67
2019-05-05T20:19:36.133Z,99355.13
2019-05-05T20:22:05.312Z,99364.62
2019-05-05T20:24:34.582Z,99365.55
2019-05-05T20:27:04.581Z,99370.22
2019-05-05T20:29:37.190Z,99369.81
2019-05-05T20:32:05.022Z,99370.45
2019-05-05T20:34:35.841Z,99369.56
2019-05-05T20:37:14.166Z,99368.91
2019-05-05T20:39:44.174Z,99374.86
2019-05-05T20:42:14.875Z,99375.16
2019-05-05T20:44:44.278Z,99376.16
2019-05-05T20:47:13.493Z,99374.56
2019-05-05T20:49:44.394Z,99381.71
2019-05-05T20:52:14.215Z,99384.35
2019-05-05T20:54:44.102Z,99383.46
2019-05-05T20:57:13.661Z,99389.37
2019-05-05T20:59:44.559Z,99392.53
2019-05-05T21:02:13.985Z,99394.64
2019-05-05T21:04:44.585Z,99398.49
2019-05-05T21:07:14.111Z,99387.23
2019-05-05T21:09:43.389Z,99378.00
2019-05-05T21:12:13.850Z,99378.91
2019-05-05T21:14:44.686Z,99382.16
2019-05-05T21:17:14.434Z,99383.22
2019-05-05T21:19:43.619Z,99390.01
2019-05-05T21:22:30.665Z,99381.55
2019-05-05T21:24:59.921Z,99383.70
2019-05-05T21:27:29.225Z,99379.05
2019-05-05T21:29:58.801Z,99386.98
2019-05-05T21:32:28.052Z,99392.46
2019-05-05T21:34:57.302Z,99394.45
2019-05-05T21:37:26.562Z,99390.56
2019-05-05T21:39:55.825Z,99391.98
2019-05-05T21:42:25.407Z,99396.41
2019-05-05T21:44:54.749Z,99398.64
2019-05-05T21:47:24.177Z,99389.30
2019-05-05T21:49:54.156Z,99397.41
2019-05-05T21:52:41.735Z,99395.70
2019-05-05T21:55:18.307Z,99400.75
2019-05-05T21:58:00.940Z,99400.65
2019-05-05T22:00:49.395Z,99405.09
2019-05-05T22:03:20.902Z,99405.05
2019-05-05T22:05:50.145Z,99406.52
2019-05-05T22:08:19.450Z,99409.88
2019-05-05T22:10:48.605Z,99403.05
2019-05-05T22:13:17.855Z,99406.77
2019-05-05T22:15:47.110Z,99407.28
2019-05-05T22:18:16.496Z,99407.04
2019-05-05T22:20:47.943Z,99407.38
2019-05-05T22:23:18.524Z,99401.38
2019-05-05T22:25:47.824Z,99406.63
2019-05-05T22:28:17.205Z,99409.34
2019-05-05T22:30:46.515Z,99399.81
2019-05-05T22:33:15.967Z,99391.28
2019-05-05T22:35:45.294Z,99393.06
2019-05-05T22:38:14.625Z,99387.53
2019-05-05T22:40:44.167Z,99393.22
2019-05-05T22:43:14.729Z,99391.64
2019-05-05T22:45:45.028Z,99387.63
2019-05-05T22:48:14.617Z,99387.00
2019-05-05T22:50:44.060Z,99383.52
2019-05-05T22:53:14.063Z,99391.77
2019-05-05T22:55:46.920Z,99389.56
2019-05-05T22:58:16.183Z,99387.88
2019-05-05T23:00:45.416Z,99388.38
2019-05-05T23:03:19.400Z,99388.52
2019-05-05T23:05:50.273Z,99394.69
2019-05-05T23:08:19.455Z,99398.59
2019-05-05T23:10:48.685Z,99393.23
2019-05-05T23:13:18.145Z,99398.45
2019-05-05T23:15:51.828Z,99383.30
2019-05-05T23:18:25.778Z,99385.56
2019-05-05T23:20:59.312Z,99385.30
2019-05-05T23:23:41.967Z,99388.80
2019-05-05T23:26:14.956Z,99383.74
2019-05-05T23:28:44.397Z,99385.34
2019-05-05T23:31:15.955Z,99378.91
2019-05-05T23:33:44.822Z,99375.34
2019-05-05T23:36:14.804Z,99374.83
2019-05-05T23:38:44.935Z,99377.25
2019-05-05T23:41:14.688Z,99380.81
2019-05-05T23:43:45.111Z,99381.08
2019-05-05T23:46:14.518Z,99379.85
2019-05-05T23:48:44.219Z,99374.92
2019-05-05T23:51:13.954Z,99379.17
2019-05-05T23:53:44.437Z,99377.84
2019-05-05T23:56:13.844Z,99389.02
2019-05-05T23:58:44.144Z,99390.41
